Time;durP1;ratioP1;P1;durP2;ratioP2;P2;SDS_P1;SDS_P2;PMS_P1;PMS_P2;Temp;Humidity;BMP_temperature;BMP_pressure;BME280_temperature;BME280_humidity;BME280_pressure;Samples;Min_cycle;Max_cycle;Signal;HPM_P1;HPM_P2
2021/07/19 00:01:06;;;;;;;14.88;4.20;;;;;;;13.39;100.00;101092.63;4853563;29;20025;-83
2021/07/19 00:03:31;;;;;;;15.63;3.78;;;;;;;13.35;100.00;101084.00;4854940;29;20026;-83
2021/07/19 00:05:57;;;;;;;16.75;3.85;;;;;;;13.32;100.00;101080.63;4854925;29;20029;-83
2021/07/19 00:08:22;;;;;;;19.27;4.35;;;;;;;13.26;100.00;101080.75;4853422;29;20033;-83
2021/07/19 00:10:49;;;;;;;17.67;3.85;;;;;;;13.25;100.00;101077.28;4870014;29;20029;-82
2021/07/19 00:13:15;;;;;;;15.15;3.70;;;;;;;13.25;100.00;101074.69;4865175;29;20029;-83
2021/07/19 00:15:40;;;;;;;15.05;3.60;;;;;;;13.25;100.00;101072.09;4864794;29;20037;-83
2021/07/19 00:18:05;;;;;;;14.10;4.57;;;;;;;13.21;100.00;101073.00;4848155;29;20033;-83
2021/07/19 00:20:31;;;;;;;12.55;3.17;;;;;;;13.18;100.00;101080.00;4847921;29;20060;-83
2021/07/19 00:22:56;;;;;;;18.08;3.85;;;;;;;13.17;100.00;101070.50;4847552;29;20038;-82
2021/07/19 00:25:21;;;;;;;15.98;3.85;;;;;;;13.18;100.00;101066.97;4865009;29;20090;-82
2021/07/19 00:27:47;;;;;;;13.05;3.22;;;;;;;13.19;100.00;101069.56;4864669;29;20394;-82
2021/07/19 00:30:15;;;;;;;16.13;3.55;;;;;;;13.30;100.00;101075.47;4866131;29;20030;-82
2021/07/19 00:32:42;;;;;;;14.18;3.63;;;;;;;13.42;100.00;101070.84;4865498;29;20037;-82
2021/07/19 00:35:08;;;;;;;13.68;3.38;;;;;;;13.49;100.00;101069.84;4848580;29;20052;-82
2021/07/19 00:37:34;;;;;;;13.45;3.45;;;;;;;13.53;100.00;101067.13;4865557;29;20036;-82
2021/07/19 00:40:00;;;;;;;15.18;3.53;;;;;;;13.57;100.00;101063.56;4848853;29;20037;-82
2021/07/19 00:42:25;;;;;;;18.98;3.67;;;;;;;13.66;100.00;101072.91;4849804;29;20026;-83
2021/07/19 00:44:51;;;;;;;16.27;3.15;;;;;;;13.73;100.00;101069.31;4848686;29;20128;-83
2021/07/19 00:47:16;;;;;;;19.58;3.88;;;;;;;13.77;100.00;101068.31;4865809;29;20034;-83
2021/07/19 00:49:43;;;;;;;14.27;3.45;;;;;;;13.81;100.00;101069.97;4865900;29;20450;-83
2021/07/19 00:52:09;;;;;;;13.55;3.38;;;;;;;13.85;100.00;101070.72;4865630;29;20463;-82
2021/07/19 00:54:37;;;;;;;12.07;3.28;;;;;;;13.88;100.00;101068.06;4849133;29;20025;-82
2021/07/19 00:57:02;;;;;;;15.15;3.67;;;;;;;13.91;99.72;101072.34;4848700;29;20039;-82
2021/07/19 00:59:30;;;;;;;11.77;3.80;;;;;;;13.91;99.76;101073.19;4849370;29;20029;-83
2021/07/19 01:01:56;;;;;;;13.95;3.35;;;;;;;13.96;99.24;101071.34;4849091;29;20083;-83
2021/07/19 01:04:24;;;;;;;14.38;3.95;;;;;;;13.98;100.00;101069.56;4850068;29;20453;-83
2021/07/19 01:06:53;;;;;;;11.73;3.45;;;;;;;14.00;99.10;101066.91;4848895;29;20025;-83
2021/07/19 01:09:18;;;;;;;15.27;3.60;;;;;;;14.02;98.22;101068.59;4866022;29;20025;-82
2021/07/19 01:11:46;;;;;;;12.80;3.22;;;;;;;14.01;97.64;101063.44;4866187;29;20033;-82
2021/07/19 01:14:11;;;;;;;15.70;3.47;;;;;;;14.08;97.41;101059.78;4848502;29;20431;-83
2021/07/19 01:16:36;;;;;;;14.32;4.20;;;;;;;14.10;97.34;101064.94;4867307;29;20033;-83
2021/07/19 01:19:02;;;;;;;13.55;3.33;;;;;;;14.09;97.10;101068.44;4849857;29;20037;-83
2021/07/19 01:21:40;;;;;;;16.15;3.65;;;;;;;14.12;96.81;101069.22;4849733;29;20022;-82
2021/07/19 01:24:11;;;;;;;13.15;3.38;;;;;;;14.15;95.70;101074.38;4849205;29;20116;-83
2021/07/19 01:27:04;;;;;;;9.63;2.80;;;;;;;14.09;96.29;101077.13;4866170;29;20032;-83
2021/07/19 01:29:30;;;;;;;13.57;3.40;;;;;;;14.11;95.63;101074.50;4866146;29;20036;-82
2021/07/19 01:31:57;;;;;;;14.73;3.85;;;;;;;14.21;95.82;101073.34;4848845;29;20585;-83
2021/07/19 01:34:25;;;;;;;13.00;2.90;;;;;;;14.16;94.24;101072.59;4865195;29;20041;-83
2021/07/19 01:37:00;;;;;;;18.75;3.70;;;;;;;14.19;94.50;101077.75;4848599;29;20058;-82
2021/07/19 01:39:27;;;;;;;13.05;2.92;;;;;;;14.19;94.71;101075.13;4849000;29;20029;-83
2021/07/19 01:41:54;;;;;;;10.05;2.80;;;;;;;14.18;93.86;101076.91;4865831;29;20037;-83
2021/07/19 01:44:21;;;;;;;19.08;3.55;;;;;;;14.15;93.67;101076.13;4865746;29;20033;-82
2021/07/19 01:46:49;;;;;;;12.63;2.88;;;;;;;14.18;93.94;101069.06;4865473;29;20033;-82
2021/07/19 01:49:15;;;;;;;12.75;3.05;;;;;;;14.15;94.66;101076.13;4864821;29;20052;-82
2021/07/19 01:51:41;;;;;;;12.50;3.13;;;;;;;14.18;93.12;101076.03;4865485;29;20108;-82
2021/07/19 01:54:08;;;;;;;10.20;2.67;;;;;;;14.18;93.70;101068.22;4848779;29;20193;-83
2021/07/19 01:56:33;;;;;;;20.08;3.35;;;;;;;14.16;95.11;101070.88;4850069;29;20439;-83
2021/07/19 01:58:59;;;;;;;13.07;3.20;;;;;;;14.20;93.28;101071.66;4863291;29;20032;-82
2021/07/19 02:01:26;;;;;;;12.43;2.65;;;;;;;14.19;93.61;101070.81;4863277;29;20048;-82
2021/07/19 02:03:52;;;;;;;15.68;3.13;;;;;;;14.20;93.53;101067.28;4846346;29;20040;-82
2021/07/19 02:06:18;;;;;;;14.00;3.90;;;;;;;14.15;93.69;101069.16;4846478;29;20112;-83
2021/07/19 02:08:48;;;;;;;13.02;3.10;;;;;;;14.17;93.46;101067.38;4863034;29;20060;-83
2021/07/19 02:11:17;;;;;;;14.23;2.92;;;;;;;14.19;93.70;101073.41;4846166;29;20029;-83
2021/07/19 02:13:44;;;;;;;13.00;3.47;;;;;;;14.18;93.81;101073.44;4863683;29;20029;-82
2021/07/19 02:16:11;;;;;;;11.73;3.00;;;;;;;14.17;94.83;101069.97;4848332;29;20078;-82
2021/07/19 02:18:39;;;;;;;11.23;2.60;;;;;;;14.19;94.63;101073.41;4847758;29;20032;-82
2021/07/19 02:21:05;;;;;;;18.10;3.90;;;;;;;14.20;94.40;101077.72;4864813;29;20120;-82
2021/07/19 02:23:32;;;;;;;12.07;3.30;;;;;;;14.22;94.68;101067.22;4848284;29;20450;-82
2021/07/19 02:25:59;;;;;;;8.38;2.53;;;;;;;14.16;95.19;101067.38;4850176;29;20021;-82
2021/07/19 02:28:25;;;;;;;9.85;2.70;;;;;;;14.22;94.72;101072.44;4852048;29;20124;-83
2021/07/19 02:30:52;;;;;;;12.10;2.95;;;;;;;14.23;94.67;101071.56;4869238;29;20072;-83
2021/07/19 02:33:20;;;;;;;9.45;3.13;;;;;;;14.25;94.61;101080.19;4869155;29;20069;-83
2021/07/19 02:35:46;;;;;;;9.60;2.38;;;;;;;14.22;96.28;101078.56;4852378;29;20057;-83
2021/07/19 02:38:13;;;;;;;12.27;2.72;;;;;;;14.21;95.10;101073.34;4868211;29;20112;-83
2021/07/19 02:40:39;;;;;;;13.02;2.88;;;;;;;14.22;95.83;101072.44;4868539;29;20030;-83
2021/07/19 02:43:07;;;;;;;13.45;3.17;;;;;;;14.22;95.57;101069.84;4852145;29;20051;-83
2021/07/19 02:45:37;;;;;;;9.50;2.63;;;;;;;14.22;95.52;101068.13;4869497;29;20390;-83
2021/07/19 02:48:05;;;;;;;10.73;2.72;;;;;;;14.18;96.20;101068.22;4869759;29;20029;-83
2021/07/19 02:50:31;;;;;;;12.65;2.83;;;;;;;14.21;95.49;101065.53;4869612;29;20526;-82
2021/07/19 02:52:58;;;;;;;15.32;3.40;;;;;;;14.17;95.74;101074.34;4869873;29;20049;-82
2021/07/19 02:55:25;;;;;;;11.23;2.75;;;;;;;14.19;96.71;101077.75;4869990;29;20042;-82
2021/07/19 02:57:50;;;;;;;14.60;3.88;;;;;;;14.22;96.20;101070.72;4869617;29;20038;-82
2021/07/19 03:00:17;;;;;;;14.00;3.10;;;;;;;14.20;96.20;101063.81;4869870;29;20387;-83
2021/07/19 03:02:55;;;;;;;11.38;2.70;;;;;;;14.18;96.21;101065.59;4870146;29;20505;-82
2021/07/19 03:05:25;;;;;;;11.13;2.67;;;;;;;14.19;96.15;101064.69;4870343;29;20479;-82
2021/07/19 03:07:54;;;;;;;11.55;2.88;;;;;;;14.18;96.71;101061.25;4869627;29;20033;-82
2021/07/19 03:10:22;;;;;;;10.45;2.80;;;;;;;14.16;96.14;101060.44;4868916;29;20029;-82
2021/07/19 03:12:51;;;;;;;9.90;2.65;;;;;;;14.15;97.10;101076.13;4850054;29;20089;-82
2021/07/19 03:15:17;;;;;;;15.68;3.47;;;;;;;14.13;96.59;101065.75;4866127;29;20453;-82
2021/07/19 03:17:44;;;;;;;11.52;2.78;;;;;;;14.15;96.06;101065.69;4865579;29;20108;-83
2021/07/19 03:20:11;;;;;;;14.02;3.17;;;;;;;14.16;96.24;101059.56;4866360;29;20085;-83
2021/07/19 03:22:40;;;;;;;9.43;2.78;;;;;;;14.12;96.29;101060.53;4867334;29;20025;-82
2021/07/19 03:25:10;;;;;;;11.35;2.88;;;;;;;14.15;96.19;101058.72;4867057;29;20032;-83
2021/07/19 03:27:37;;;;;;;12.88;2.65;;;;;;;14.13;96.44;101065.75;4867282;29;20090;-83
2021/07/19 03:30:05;;;;;;;10.10;2.53;;;;;;;14.11;96.33;101072.72;4850562;29;20029;-83
2021/07/19 03:32:32;;;;;;;11.25;2.58;;;;;;;14.07;97.01;101078.03;4850256;29;20029;-83
2021/07/19 03:34:58;;;;;;;14.57;3.13;;;;;;;14.10;96.71;101083.19;4850425;29;20034;-83
2021/07/19 03:37:24;;;;;;;23.92;4.80;;;;;;;14.11;98.11;101088.38;4866108;29;20043;-83
2021/07/19 03:39:51;;;;;;;11.27;2.97;;;;;;;14.20;96.38;101080.34;4866401;29;20025;-83
2021/07/19 03:42:17;;;;;;;14.75;3.22;;;;;;;14.20;95.77;101080.34;4866732;29;20035;-83
2021/07/19 03:44:44;;;;;;;11.18;3.25;;;;;;;14.19;96.52;101086.47;4867352;29;20033;-83
2021/07/19 03:47:11;;;;;;;14.07;2.75;;;;;;;14.22;96.44;101089.00;4869905;29;20066;-82
2021/07/19 03:49:36;;;;;;;17.10;3.15;;;;;;;14.23;95.81;101074.19;4873892;29;20089;-83
2021/07/19 03:52:03;;;;;;;11.98;2.70;;;;;;;14.21;96.65;101075.97;4854489;29;20068;-83
2021/07/19 03:54:28;;;;;;;13.35;3.03;;;;;;;14.25;95.35;101074.97;4870162;29;20441;-83
2021/07/19 03:56:54;;;;;;;10.45;2.60;;;;;;;14.19;96.54;101072.53;4868659;29;20037;-83
2021/07/19 03:59:22;;;;;;;10.75;2.78;;;;;;;14.18;96.83;101074.28;4870729;29;20029;-83
2021/07/19 04:01:48;;;;;;;9.20;2.95;;;;;;;14.17;96.85;101079.56;4853000;29;20443;-83
2021/07/19 04:04:19;;;;;;;9.25;2.80;;;;;;;14.21;96.38;101079.44;4854167;29;20026;-83
2021/07/19 04:06:45;;;;;;;14.90;2.95;;;;;;;14.24;95.84;101073.28;4870056;29;20053;-82
2021/07/19 04:09:11;;;;;;;10.88;2.72;;;;;;;14.24;96.99;101081.09;4852400;29;20028;-82
2021/07/19 04:11:38;;;;;;;14.35;3.05;;;;;;;14.28;97.22;101080.13;4868511;29;20030;-82
2021/07/19 04:14:07;;;;;;;15.27;3.33;;;;;;;14.29;96.17;101079.25;4869075;29;20133;-82
2021/07/19 04:16:32;;;;;;;7.78;2.60;;;;;;;14.26;95.65;101071.50;4868852;29;20026;-83
2021/07/19 04:18:58;;;;;;;9.35;2.83;;;;;;;14.23;96.69;101077.66;4869300;29;20034;-82
2021/07/19 04:21:24;;;;;;;13.10;3.15;;;;;;;14.31;95.76;101071.38;4870013;29;20104;-82
2021/07/19 04:23:53;;;;;;;9.60;2.80;;;;;;;14.31;97.09;101072.22;4852967;29;20034;-82
2021/07/19 04:26:19;;;;;;;12.38;2.92;;;;;;;14.37;96.54;101072.06;4870020;29;20034;-82
2021/07/19 04:28:44;;;;;;;8.38;2.70;;;;;;;14.39;94.77;101070.28;4870027;29;20042;-82
2021/07/19 04:31:15;;;;;;;10.35;2.88;;;;;;;14.38;95.11;101070.34;4853617;29;20077;-82
2021/07/19 04:33:46;;;;;;;13.30;2.97;;;;;;;14.37;95.27;101074.69;4879279;23;20054;-84
2021/07/19 04:36:14;;;;;;;8.98;2.80;;;;;;;14.36;94.99;101072.97;4846452;29;20458;-84
2021/07/19 04:38:40;;;;;;;11.88;2.70;;;;;;;14.37;96.34;101077.28;4845909;29;20082;-84
2021/07/19 04:41:06;;;;;;;11.07;3.17;;;;;;;14.39;95.53;101078.13;4845697;29;20040;-85
2021/07/19 04:43:31;;;;;;;14.93;4.03;;;;;;;14.42;95.39;101083.25;4845688;29;20026;-85
2021/07/19 04:45:56;;;;;;;9.32;2.80;;;;;;;14.42;95.65;101080.66;4846193;29;20097;-84
2021/07/19 04:48:22;;;;;;;13.88;3.40;;;;;;;14.39;95.24;101088.56;4861100;29;20029;-84
2021/07/19 04:50:50;;;;;;;11.32;3.28;;;;;;;14.44;96.46;101081.47;4845586;29;20029;-84
2021/07/19 04:53:24;;;;;;;12.35;3.15;;;;;;;14.48;94.71;101085.69;4845450;29;20037;-85
2021/07/19 04:55:57;;;;;;;9.73;3.10;;;;;;;14.47;93.83;101085.72;4846410;29;20029;-85
2021/07/19 04:58:23;;;;;;;8.73;2.97;;;;;;;14.53;95.76;101092.59;4846743;29;20444;-85
2021/07/19 05:00:53;;;;;;;12.70;3.38;;;;;;;14.60;94.42;101091.53;4845978;29;20033;-85
2021/07/19 05:03:19;;;;;;;8.68;3.10;;;;;;;14.56;94.60;101088.13;4845732;29;20037;-85
2021/07/19 05:05:49;;;;;;;8.77;2.78;;;;;;;14.62;94.80;101100.16;4846390;29;20036;-85
2021/07/19 05:08:22;;;;;;;11.90;3.65;;;;;;;14.49;97.00;101092.63;4846227;29;20041;-85
2021/07/19 05:10:50;;;;;;;7.97;2.92;;;;;;;14.68;95.40;101100.88;4845904;29;20033;-85
2021/07/19 05:13:17;;;;;;;11.95;3.17;;;;;;;14.69;95.04;101100.00;4846243;29;20454;-85
2021/07/19 05:15:48;;;;;;;9.43;2.95;;;;;;;14.81;95.11;101105.75;4845390;29;20025;-85
2021/07/19 05:18:18;;;;;;;7.25;2.50;;;;;;;14.72;96.54;101097.28;4845448;29;20033;-85
2021/07/19 05:20:45;;;;;;;10.90;2.90;;;;;;;14.83;95.69;101097.00;4845414;29;20048;-85
2021/07/19 05:23:11;;;;;;;9.80;3.10;;;;;;;14.91;95.38;101108.09;4845790;29;20069;-85
2021/07/19 05:25:37;;;;;;;11.95;3.10;;;;;;;14.90;94.22;101101.16;4845113;29;20097;-84
2021/07/19 05:28:05;;;;;;;10.13;3.10;;;;;;;14.91;94.42;101097.66;4845082;29;20056;-85
2021/07/19 05:30:31;;;;;;;12.45;3.08;;;;;;;14.93;94.42;101098.47;4862049;29;20032;-85
2021/07/19 05:32:56;;;;;;;11.90;2.83;;;;;;;14.88;97.78;101094.28;4861551;29;20414;-86
2021/07/19 05:35:22;;;;;;;10.50;2.97;;;;;;;14.92;97.36;101096.75;4845203;29;20085;-85
2021/07/19 05:37:48;;;;;;;10.48;3.15;;;;;;;15.00;95.29;101106.13;4861769;29;20550;-85
2021/07/19 05:40:14;;;;;;;9.63;3.55;;;;;;;14.88;95.61;101105.56;4844944;29;20029;-85
2021/07/19 05:42:41;;;;;;;14.20;3.10;;;;;;;14.93;94.24;101108.03;4845098;29;20034;-85
2021/07/19 05:45:09;;;;;;;11.43;2.95;;;;;;;14.88;93.62;101105.56;4844480;29;20025;-84
2021/07/19 05:47:35;;;;;;;14.45;3.97;;;;;;;14.90;94.39;101103.78;4845241;29;20386;-84
2021/07/19 05:50:01;;;;;;;14.93;3.70;;;;;;;14.95;95.63;101107.09;4845055;29;20113;-85
2021/07/19 05:52:29;;;;;;;12.35;3.28;;;;;;;14.93;94.12;101105.44;4844356;29;20415;-85
2021/07/19 05:54:56;;;;;;;13.45;3.33;;;;;;;14.98;94.58;101105.31;4845184;29;20033;-85
2021/07/19 05:57:23;;;;;;;9.52;3.22;;;;;;;14.86;96.46;101109.97;4844799;29;20455;-85
2021/07/19 05:59:49;;;;;;;10.88;3.45;;;;;;;14.87;96.67;101116.94;4844382;29;20029;-85
2021/07/19 06:02:17;;;;;;;11.63;3.88;;;;;;;14.94;95.04;101117.59;4844313;29;20505;-85
2021/07/19 06:04:43;;;;;;;10.98;4.32;;;;;;;15.04;94.28;101118.22;4844581;29;20081;-85
2021/07/19 06:07:08;;;;;;;11.25;4.00;;;;;;;15.04;94.64;101112.97;4845116;29;20033;-86
2021/07/19 06:09:33;;;;;;;11.93;4.13;;;;;;;15.10;93.88;101118.03;4845267;29;20372;-85
2021/07/19 06:11:59;;;;;;;14.15;5.05;;;;;;;15.14;92.99;101119.66;4844336;29;20486;-86
2021/07/19 06:14:24;;;;;;;11.75;4.20;;;;;;;15.15;95.00;101110.94;4844586;29;20025;-86
2021/07/19 06:16:50;;;;;;;9.60;3.97;;;;;;;15.22;92.94;101122.91;4845086;29;20033;-85
2021/07/19 06:19:16;;;;;;;10.85;4.40;;;;;;;15.14;93.51;101130.09;4844132;29;20448;-85
2021/07/19 06:21:41;;;;;;;12.30;5.35;;;;;;;15.22;92.85;101125.53;4844227;29;20032;-84
2021/07/19 06:24:06;;;;;;;13.05;4.97;;;;;;;15.29;92.52;101124.44;4844714;29;20037;-84
2021/07/19 06:26:32;;;;;;;13.43;5.03;;;;;;;15.32;92.19;101132.19;4844251;29;20029;-84
2021/07/19 06:28:57;;;;;;;13.55;4.93;;;;;;;15.46;90.86;101133.56;4844255;29;20036;-84
2021/07/19 06:31:22;;;;;;;15.02;5.20;;;;;;;15.51;90.47;101131.66;4844241;29;20048;-84
2021/07/19 06:33:47;;;;;;;13.30;4.93;;;;;;;15.47;92.33;101133.53;4843805;29;20052;-84
2021/07/19 06:36:13;;;;;;;10.90;4.82;;;;;;;15.66;89.66;101131.22;4860720;29;20021;-84
2021/07/19 06:38:38;;;;;;;13.90;4.90;;;;;;;15.61;89.41;101133.97;4860534;29;20055;-85
2021/07/19 06:41:03;;;;;;;16.33;5.65;;;;;;;15.93;87.22;101126.06;4843997;29;20033;-85
2021/07/19 06:43:29;;;;;;;11.90;4.75;;;;;;;15.84;86.63;101135.91;4844000;29;20030;-85
2021/07/19 06:45:54;;;;;;;10.20;5.25;;;;;;;15.68;85.26;101128.59;4860500;29;20057;-84
2021/07/19 06:48:19;;;;;;;10.30;4.70;;;;;;;15.93;85.29;101139.16;4860497;29;20021;-84
2021/07/19 06:50:45;;;;;;;11.88;4.72;;;;;;;15.86;87.74;101141.13;4843914;29;20062;-86
2021/07/19 06:53:10;;;;;;;12.18;4.45;;;;;;;16.08;83.12;101130.81;4860688;29;20041;-84
2021/07/19 06:55:35;;;;;;;12.77;4.65;;;;;;;15.93;83.89;101136.53;4844119;29;20033;-84
2021/07/19 06:58:01;;;;;;;9.73;4.93;;;;;;;15.90;84.59;101140.09;4844067;29;20406;-85
2021/07/19 07:00:26;;;;;;;10.85;5.28;;;;;;;15.92;82.93;101134.81;4843814;29;20511;-85
2021/07/19 07:02:51;;;;;;;13.38;4.90;;;;;;;16.06;82.92;101143.09;4843852;29;20045;-85
2021/07/19 07:05:17;;;;;;;13.82;5.40;;;;;;;16.01;84.31;101150.22;4843846;29;20026;-85
2021/07/19 07:07:43;;;;;;;10.68;4.57;;;;;;;16.11;81.38;101147.28;4844106;29;20067;-85
2021/07/19 07:10:12;;;;;;;8.55;4.72;;;;;;;16.14;79.25;101151.56;4843963;29;20517;-85
2021/07/19 07:12:39;;;;;;;11.13;5.18;;;;;;;16.02;80.28;101142.34;4846867;29;20099;-85
2021/07/19 07:15:06;;;;;;;10.88;4.82;;;;;;;16.23;80.10;101145.19;4863724;29;20041;-84
2021/07/19 07:17:31;;;;;;;8.45;4.43;;;;;;;16.47;79.70;101148.75;4847014;29;20506;-85
2021/07/19 07:19:56;;;;;;;9.30;4.30;;;;;;;16.72;78.76;101151.41;4847160;29;20029;-85
2021/07/19 07:22:22;;;;;;;13.88;4.90;;;;;;;16.52;77.30;101147.69;4846876;29;20096;-85
2021/07/19 07:24:47;;;;;;;11.20;4.45;;;;;;;16.51;78.09;101142.50;4847077;29;20468;-85
2021/07/19 07:27:13;;;;;;;10.63;4.95;;;;;;;16.81;78.04;101140.66;4863396;29;20029;-85
2021/07/19 07:29:39;;;;;;;8.77;4.00;;;;;;;16.69;74.29;101141.03;4846928;29;20539;-85
2021/07/19 07:32:05;;;;;;;8.73;4.53;;;;;;;16.81;76.90;101143.28;4847413;29;20038;-85
2021/07/19 07:34:31;;;;;;;12.27;5.05;;;;;;;16.82;75.62;101144.97;4863102;29;20399;-85
2021/07/19 07:36:56;;;;;;;10.27;3.95;;;;;;;17.05;72.44;101140.69;4849247;29;20036;-84
2021/07/19 07:39:22;;;;;;;9.45;4.20;;;;;;;17.13;71.27;101142.13;4846634;29;20036;-85
2021/07/19 07:41:47;;;;;;;11.32;4.00;;;;;;;17.38;72.09;101151.72;4846673;29;20618;-85
2021/07/19 07:44:12;;;;;;;9.55;4.05;;;;;;;17.61;68.39;101149.09;4846507;29;20025;-85
2021/07/19 07:46:38;;;;;;;10.05;4.15;;;;;;;17.48;70.41;101145.19;4846622;29;20397;-85
2021/07/19 07:49:03;;;;;;;10.60;3.97;;;;;;;18.12;67.10;101139.25;4847344;29;20153;-85
2021/07/19 07:51:29;;;;;;;12.10;4.65;;;;;;;17.71;70.29;101147.81;4863087;29;20025;-85
2021/07/19 07:53:56;;;;;;;12.38;4.63;;;;;;;17.51;66.46;101145.09;4862989;29;20109;-85
2021/07/19 07:56:21;;;;;;;9.52;4.00;;;;;;;17.78;65.17;101145.00;4863044;29;20025;-85
2021/07/19 07:58:47;;;;;;;8.20;3.60;;;;;;;17.53;66.17;101142.41;4846185;29;20036;-85
2021/07/19 08:01:12;;;;;;;8.27;3.75;;;;;;;17.42;67.48;101137.56;4846188;29;20121;-85
2021/07/19 08:03:37;;;;;;;8.75;3.97;;;;;;;17.43;66.04;101140.16;4846907;29;20037;-85
2021/07/19 08:06:02;;;;;;;8.23;3.83;;;;;;;17.56;68.99;101140.53;4862712;29;20034;-85
2021/07/19 08:08:28;;;;;;;8.55;3.90;;;;;;;17.63;65.38;101143.78;4846309;29;20475;-85
2021/07/19 08:10:53;;;;;;;8.57;3.75;;;;;;;18.63;62.26;101141.50;4846162;29;20022;-85
2021/07/19 08:13:18;;;;;;;10.95;3.58;;;;;;;18.82;64.14;101141.59;4846075;29;20039;-85
2021/07/19 08:15:47;;;;;;;8.40;3.67;;;;;;;18.42;63.65;101139.78;4845943;29;20479;-85
2021/07/19 08:18:14;;;;;;;11.15;3.85;;;;;;;18.34;64.02;101134.81;4845917;29;20025;-85
2021/07/19 08:20:40;;;;;;;8.98;4.18;;;;;;;17.82;66.09;101144.78;4862553;29;20033;-85
2021/07/19 08:23:05;;;;;;;7.95;2.97;;;;;;;17.39;65.50;101148.16;4845739;29;20029;-85
2021/07/19 08:25:31;;;;;;;11.07;3.63;;;;;;;17.39;64.68;101143.78;4862474;29;20029;-85
2021/07/19 08:27:56;;;;;;;8.50;3.55;;;;;;;17.29;67.30;101136.31;4845857;29;20097;-84
2021/07/19 08:30:21;;;;;;;9.48;3.75;;;;;;;17.70;65.88;101143.50;4862566;29;20486;-85
2021/07/19 08:32:47;;;;;;;6.85;2.92;;;;;;;17.66;63.42;101136.63;4845616;29;20089;-85
2021/07/19 08:35:13;;;;;;;10.75;3.60;;;;;;;18.05;63.35;101122.91;4845684;29;20074;-85
2021/07/19 08:37:40;;;;;;;7.47;3.70;;;;;;;18.47;63.67;101135.16;4862213;29;20029;-84
2021/07/19 08:40:08;;;;;;;8.65;3.40;;;;;;;18.59;64.48;101134.66;4862103;29;20029;-84
2021/07/19 08:42:35;;;;;;;7.80;2.78;;;;;;;18.46;62.28;101138.72;4830627;29;20041;-85
2021/07/19 08:45:06;;;;;;;7.35;3.22;;;;;;;18.08;63.18;101130.66;4845344;29;20036;-84
2021/07/19 08:47:35;;;;;;;7.70;3.25;;;;;;;18.11;62.78;101132.31;4845953;29;20032;-84
2021/07/19 08:50:00;;;;;;;7.40;3.55;;;;;;;18.02;65.38;101132.69;4845591;29;20030;-85
2021/07/19 08:52:26;;;;;;;8.55;3.70;;;;;;;17.93;64.65;101126.03;4862090;29;20033;-85
2021/07/19 08:54:52;;;;;;;8.65;3.00;;;;;;;17.96;64.70;101138.16;4861862;29;20459;-84
2021/07/19 08:57:20;;;;;;;8.15;3.60;;;;;;;17.75;65.62;101126.72;4845297;29;20025;-85
2021/07/19 08:59:47;;;;;;;8.00;3.38;;;;;;;17.72;65.34;101131.16;4845250;29;20439;-85
2021/07/19 09:02:12;;;;;;;6.93;3.45;;;;;;;17.62;62.93;101121.09;4845149;29;20410;-86
2021/07/19 09:04:37;;;;;;;8.02;3.55;;;;;;;17.62;63.69;101129.81;4845102;29;20031;-85
2021/07/19 09:07:04;;;;;;;7.95;3.15;;;;;;;17.66;64.73;101125.28;4845223;29;20025;-85
2021/07/19 09:09:31;;;;;;;9.55;4.10;;;;;;;17.75;65.27;101126.72;4845047;29;20028;-85
2021/07/19 09:11:57;;;;;;;7.97;3.53;;;;;;;18.05;62.60;101120.28;4845139;29;20095;-85
2021/07/19 09:14:24;;;;;;;9.73;3.50;;;;;;;18.24;63.79;101128.25;4845335;29;20120;-85
2021/07/19 09:16:50;;;;;;;8.50;3.55;;;;;;;18.55;62.83;101126.97;4845007;29;20440;-85
2021/07/19 09:19:17;;;;;;;8.00;3.35;;;;;;;18.29;63.74;101120.22;4844880;29;20022;-85
2021/07/19 09:21:45;;;;;;;8.60;3.45;;;;;;;18.52;63.13;101121.84;4861641;29;20063;-84
2021/07/19 09:24:14;;;;;;;7.80;3.42;;;;;;;18.86;61.76;101119.50;4844903;29;20025;-85
2021/07/19 09:26:41;;;;;;;8.68;3.60;;;;;;;18.75;62.25;101115.63;4845140;29;20032;-85
2021/07/19 09:29:10;;;;;;;8.35;3.70;;;;;;;18.34;62.24;101110.34;4861415;29;20422;-85
2021/07/19 09:31:43;;;;;;;8.38;3.40;;;;;;;17.90;64.75;101115.63;4844800;29;20062;-84
2021/07/19 09:34:20;;;;;;;9.13;3.27;;;;;;;18.55;62.82;101117.31;4844243;29;20112;-85
2021/07/19 09:37:02;;;;;;;8.82;3.20;;;;;;;18.42;63.00;101113.50;4844806;29;20399;-84
2021/07/19 09:39:30;;;;;;;8.38;3.85;;;;;;;18.56;63.33;101115.53;4844685;29;20029;-84
2021/07/19 09:42:22;;;;;;;7.40;3.20;;;;;;;18.51;61.85;101115.75;4844648;29;20093;-85
2021/07/19 09:44:55;;;;;;;8.10;3.30;;;;;;;18.34;65.04;101116.44;4844577;29;20085;-85
2021/07/19 09:47:40;;;;;;;11.83;3.73;;;;;;;18.36;64.95;101105.88;4844704;29;20090;-84
2021/07/19 09:50:17;;;;;;;14.25;4.45;;;;;;;18.41;65.07;101106.53;4844591;29;20294;-84
2021/07/19 09:52:44;;;;;;;10.52;3.50;;;;;;;18.49;65.30;101107.06;4844584;29;20406;-85
2021/07/19 09:55:26;;;;;;;7.93;3.60;;;;;;;18.40;64.49;101099.59;4861088;29;20034;-85
2021/07/19 09:57:56;;;;;;;9.05;3.78;;;;;;;18.53;65.39;101110.41;4861222;29;20025;-85
2021/07/19 10:00:22;;;;;;;7.88;3.28;;;;;;;18.78;63.80;101100.63;4860892;29;20071;-84
2021/07/19 10:02:48;;;;;;;12.10;3.42;;;;;;;19.48;62.84;101095.69;4861011;29;20098;-85
2021/07/19 10:05:26;;;;;;;9.35;3.53;;;;;;;20.27;62.33;101100.72;4861061;29;20502;-84
2021/07/19 10:07:51;;;;;;;8.32;3.67;;;;;;;19.88;59.95;101094.69;4845183;29;20116;-84
2021/07/19 10:10:17;;;;;;;9.80;3.58;;;;;;;20.56;58.17;101097.47;4861068;29;20057;-84
2021/07/19 10:12:42;;;;;;;8.40;3.50;;;;;;;20.06;57.41;101087.66;4844264;29;20029;-85
2021/07/19 10:15:11;;;;;;;8.13;3.78;;;;;;;19.74;59.94;101086.63;4861255;29;20474;-84
2021/07/19 10:17:38;;;;;;;7.47;3.58;;;;;;;19.47;60.19;101089.59;4844795;29;20036;-85
2021/07/19 10:20:04;;;;;;;11.13;3.60;;;;;;;19.54;60.56;101079.63;4844900;29;20029;-84
2021/07/19 10:22:30;;;;;;;7.78;3.20;;;;;;;18.98;60.06;101083.94;4844278;29;20033;-85
2021/07/19 10:24:55;;;;;;;9.23;3.97;;;;;;;18.79;61.41;101080.44;4844401;29;20026;-84
2021/07/19 10:27:24;;;;;;;9.90;3.50;;;;;;;18.98;63.40;101086.56;4844241;29;20081;-84
2021/07/19 10:29:49;;;;;;;13.13;3.95;;;;;;;18.62;64.87;101079.34;4860686;29;20442;-84
2021/07/19 10:34:49;;;;;;;7.40;3.42;;;;;;;18.33;66.05;101082.38;4862201;29;20503;-83
2021/07/19 10:37:22;;;;;;;8.35;3.67;;;;;;;18.25;66.03;101087.94;4862863;29;20109;-83
2021/07/19 10:39:51;;;;;;;7.55;3.90;;;;;;;18.23;68.36;101092.44;4862689;29;20033;-83
2021/07/19 10:42:16;;;;;;;9.10;3.80;;;;;;;18.11;68.09;101090.31;4863117;29;20052;-83
2021/07/19 10:44:43;;;;;;;9.05;3.95;;;;;;;17.70;66.45;101082.28;4862513;29;20025;-83
2021/07/19 10:47:13;;;;;;;9.02;3.78;;;;;;;17.90;67.31;101079.75;4865015;29;20505;-83
2021/07/19 10:49:41;;;;;;;7.78;3.58;;;;;;;18.18;66.67;101083.88;4866883;29;20037;-84
2021/07/19 10:52:16;;;;;;;6.95;3.53;;;;;;;18.46;66.78;101087.97;4865728;29;20128;-83
2021/07/19 10:54:49;;;;;;;7.38;3.63;;;;;;;18.44;67.71;101082.75;4866295;29;20036;-83
2021/07/19 10:57:18;;;;;;;9.57;3.80;;;;;;;18.48;65.48;101084.38;4866164;29;20086;-83
2021/07/19 10:59:58;;;;;;;8.65;3.60;;;;;;;18.95;63.83;101083.22;4864685;29;20021;-83
2021/07/19 11:02:28;;;;;;;7.38;3.60;;;;;;;18.47;64.30;101069.50;4866284;29;20112;-83
2021/07/19 11:04:54;;;;;;;8.07;3.67;;;;;;;18.31;66.06;101068.44;4865084;29;20120;-83
2021/07/19 11:07:19;;;;;;;8.20;4.00;;;;;;;18.39;68.85;101074.25;4866043;29;20521;-84
2021/07/19 11:09:44;;;;;;;12.07;4.18;;;;;;;18.04;68.42;101076.59;4865642;29;20101;-84
2021/07/19 11:12:16;;;;;;;8.50;4.13;;;;;;;17.71;70.03;101084.84;4864772;29;20471;-84
2021/07/19 11:14:50;;;;;;;13.10;4.10;;;;;;;17.74;70.21;101073.38;4867961;29;20037;-83
2021/07/19 11:17:18;;;;;;;10.43;3.78;;;;;;;17.89;70.38;101074.56;4868217;29;20526;-83
2021/07/19 11:19:44;;;;;;;7.35;3.83;;;;;;;18.08;70.90;101080.78;4870191;29;20040;-83
2021/07/19 11:22:12;;;;;;;9.10;3.65;;;;;;;18.04;71.55;101081.81;4869534;29;20029;-83